Time;durP1;ratioP1;P1;durP2;ratioP2;P2;SDS_P1;SDS_P2;PMS_P1;PMS_P2;Temp;Humidity;BMP_temperature;BMP_pressure;BME280_temperature;BME280_humidity;BME280_pressure;Samples;Min_cycle;Max_cycle;Signal;HPM_P1;HPM_P2
2021/03/02 00:03:45;;;;;;;85.33;41.63;;;;;;;-0.52;89.99;102432.07;3561835;79;98821;-83
2021/03/02 00:08:46;;;;;;;86.47;43.53;;;;;;;-0.55;89.96;102431.21;3547419;81;31802;-83
2021/03/02 00:13:47;;;;;;;86.30;41.30;;;;;;;-0.60;89.85;102427.09;3607666;80;98684;-83
2021/03/02 00:18:53;;;;;;;84.73;41.97;;;;;;;-0.58;90.02;102426.85;3549997;82;31860;-83
2021/03/02 00:23:59;;;;;;;86.22;39.08;;;;;;;-0.62;89.91;102422.49;3578874;80;98555;-83
2021/03/02 00:29:05;;;;;;;82.57;39.27;;;;;;;-0.64;89.90;102417.05;3554103;81;31832;-83
2021/03/02 00:34:06;;;;;;;79.27;36.00;;;;;;;-0.68;89.87;102417.27;3572251;81;98709;-83
2021/03/02 00:39:07;;;;;;;85.83;38.47;;;;;;;-0.76;89.85;102410.98;3576569;81;31743;-82
2021/03/02 00:44:08;;;;;;;87.47;39.13;;;;;;;-0.78;90.03;102399.06;3577388;79;98846;-82
2021/03/02 00:49:09;;;;;;;84.90;38.20;;;;;;;-0.84;89.77;102405.48;3583411;81;30494;-82
2021/03/02 00:54:10;;;;;;;79.03;36.87;;;;;;;-0.90;89.95;102392.99;3582483;80;98794;-83
2021/03/02 00:59:11;;;;;;;92.07;43.40;;;;;;;-0.92;89.83;102397.84;3579443;81;31773;-82
2021/03/02 01:04:12;;;;;;;108.20;49.67;;;;;;;-1.00;90.04;102399.63;3578241;81;98887;-82
2021/03/02 01:09:13;;;;;;;102.27;46.83;;;;;;;-0.98;90.35;102397.51;3582212;81;30956;-81
2021/03/02 01:14:14;;;;;;;121.80;57.17;;;;;;;-1.02;90.28;102391.48;3570185;81;99004;-82
2021/03/02 01:19:16;;;;;;;113.97;50.57;;;;;;;-1.01;90.62;102387.71;3579873;81;29919;-81
2021/03/02 01:24:17;;;;;;;100.87;46.40;;;;;;;-0.98;90.70;102381.30;3574697;81;98966;-82
2021/03/02 01:29:18;;;;;;;98.37;47.83;;;;;;;-0.99;90.63;102376.14;3577704;81;29883;-82
2021/03/02 01:34:19;;;;;;;108.07;51.30;;;;;;;-1.09;90.56;102378.16;3562202;81;99201;-81
2021/03/02 01:39:20;;;;;;;110.53;47.50;;;;;;;-1.09;90.59;102361.95;3575875;81;27962;-81
2021/03/02 01:44:22;;;;;;;93.50;46.18;;;;;;;-1.12;90.51;102350.31;3570340;81;98979;-81
2021/03/02 01:49:24;;;;;;;101.47;45.17;;;;;;;-1.19;90.54;102362.38;3574416;81;35118;-81
2021/03/02 01:54:26;;;;;;;100.07;48.08;;;;;;;-1.19;90.47;102357.81;3572026;81;98982;-82
2021/03/02 01:59:27;;;;;;;108.30;50.07;;;;;;;-1.22;90.54;102350.19;3618867;80;35076;-82
2021/03/02 02:04:45;;;;;;;111.37;50.47;;;;;;;-1.17;90.56;102350.78;3579374;81;98883;-81
2021/03/02 02:10:13;;;;;;;109.23;51.50;;;;;;;-1.22;90.50;102365.61;3553938;81;35582;-81
2021/03/02 02:15:27;;;;;;;106.57;46.50;;;;;;;-1.24;90.53;102376.66;3500429;82;98672;-81
2021/03/02 02:20:51;;;;;;;89.00;41.27;;;;;;;-1.27;90.53;102371.73;3504985;82;35912;-81
2021/03/02 02:26:07;;;;;;;103.90;45.20;;;;;;;-1.24;90.64;102369.07;3502736;82;98683;-81
2021/03/02 02:31:09;;;;;;;95.63;43.17;;;;;;;-1.23;90.70;102363.42;3503456;82;35124;-81
2021/03/02 02:36:14;;;;;;;102.20;46.43;;;;;;;-1.26;90.61;102359.86;3501049;82;99218;-81
2021/03/02 02:41:17;;;;;;;88.13;39.57;;;;;;;-1.30;90.57;102353.35;3497474;82;35055;-80
2021/03/02 02:46:20;;;;;;;97.67;43.78;;;;;;;-1.35;90.52;102340.31;3494638;82;98509;-81
2021/03/02 02:51:21;;;;;;;97.33;45.47;;;;;;;-1.41;90.44;102342.66;3510001;82;35526;-81
2021/03/02 02:56:22;;;;;;;96.37;45.27;;;;;;;-1.47;90.48;102341.80;3497905;82;98891;-81
2021/03/02 03:01:24;;;;;;;92.53;41.23;;;;;;;-1.44;90.59;102342.63;3503004;83;35421;-80
2021/03/02 03:06:28;;;;;;;99.63;43.60;;;;;;;-1.41;90.61;102346.72;3494916;82;98781;-81
2021/03/02 03:11:38;;;;;;;86.47;41.60;;;;;;;-1.42;90.48;102343.73;3534139;81;35532;-80
2021/03/02 03:16:43;;;;;;;90.53;42.17;;;;;;;-1.42;90.43;102341.03;3541950;81;98763;-81
2021/03/02 03:21:45;;;;;;;87.00;40.60;;;;;;;-1.46;90.31;102339.38;3539571;82;34983;-81
2021/03/02 03:26:48;;;;;;;92.67;42.45;;;;;;;-1.49;90.32;102337.72;3542854;81;98353;-81
2021/03/02 03:31:49;;;;;;;84.03;39.07;;;;;;;-1.48;90.28;102332.59;3549132;82;34943;-82
2021/03/02 03:36:51;;;;;;;85.60;38.50;;;;;;;-1.53;90.32;102328.48;3522756;82;98527;-81
2021/03/02 03:41:52;;;;;;;107.37;44.33;;;;;;;-1.70;90.01;102325.81;3544262;81;35066;-81
2021/03/02 03:46:53;;;;;;;102.10;44.43;;;;;;;-1.71;90.41;102320.14;3542048;82;98793;-81
2021/03/02 03:51:56;;;;;;;88.03;39.90;;;;;;;-1.74;90.45;102319.83;3532875;82;34995;-81
2021/03/02 03:56:57;;;;;;;110.77;46.93;;;;;;;-1.74;90.45;102319.83;3512136;83;98657;-81
2021/03/02 04:02:00;;;;;;;115.60;48.43;;;;;;;-1.77;90.67;102320.31;3523930;82;35029;-81
2021/03/02 04:07:01;;;;;;;107.13;51.57;;;;;;;-1.77;90.68;102309.52;3516152;82;98778;-80
2021/03/02 04:12:03;;;;;;;110.53;46.43;;;;;;;-1.83;90.72;102301.90;3538317;81;34933;-81
2021/03/02 04:17:05;;;;;;;115.52;50.58;;;;;;;-1.84;90.75;102307.54;3539224;81;98784;-81
2021/03/02 04:22:06;;;;;;;138.80;60.87;;;;;;;-1.88;90.73;102323.94;3524870;82;35034;-81
2021/03/02 04:27:07;;;;;;;151.20;61.20;;;;;;;-1.87;91.00;102322.90;3535846;82;98822;-81
2021/03/02 04:32:08;;;;;;;126.17;52.83;;;;;;;-1.81;91.25;102323.25;3548031;82;35878;-81
2021/03/02 04:37:09;;;;;;;127.47;56.00;;;;;;;-1.78;91.13;102324.91;3520140;81;98606;-81
2021/03/02 04:42:10;;;;;;;139.70;55.77;;;;;;;-1.85;91.17;102332.91;3524634;82;36039;-81
2021/03/02 04:47:12;;;;;;;135.47;51.37;;;;;;;-1.84;91.19;102341.27;3511865;82;98766;-81
2021/03/02 04:52:13;;;;;;;124.47;49.50;;;;;;;-1.80;91.15;102343.77;3545026;82;35121;-82
2021/03/02 04:57:14;;;;;;;110.40;45.67;;;;;;;-1.78;91.34;102351.07;3550560;82;98676;-81
2021/03/02 05:02:15;;;;;;;111.53;44.03;;;;;;;-1.82;91.17;102345.88;3543781;81;34972;-81
2021/03/02 05:07:16;;;;;;;90.17;39.33;;;;;;;-1.84;91.04;102339.41;3536530;82;98754;-81
2021/03/02 05:12:17;;;;;;;95.60;42.20;;;;;;;-1.84;90.98;102344.80;3598371;80;34995;-81
2021/03/02 05:17:19;;;;;;;98.27;41.23;;;;;;;-1.91;90.85;102350.89;3557871;81;98720;-82
2021/03/02 05:22:20;;;;;;;86.20;37.63;;;;;;;-1.88;91.05;102353.62;3583525;81;34958;-82
2021/03/02 05:27:21;;;;;;;97.70;39.03;;;;;;;-1.86;91.31;102344.77;3575260;81;98709;-82
2021/03/02 05:32:22;;;;;;;84.90;37.33;;;;;;;-1.91;91.02;102333.90;3580611;81;35036;-83
2021/03/02 05:37:23;;;;;;;82.82;38.25;;;;;;;-1.99;91.03;102332.95;3604130;80;98601;-82
2021/03/02 05:42:24;;;;;;;80.30;36.53;;;;;;;-1.98;91.14;102327.87;3583131;81;33607;-83
2021/03/02 05:47:25;;;;;;;78.33;32.47;;;;;;;-2.07;91.03;102331.48;3603382;80;98931;-83
2021/03/02 05:52:29;;;;;;;90.90;38.53;;;;;;;-2.09;91.24;102338.23;3555659;81;33245;-83
2021/03/02 05:57:30;;;;;;;95.63;40.67;;;;;;;-2.04;91.72;102345.84;3588115;79;98332;-82
2021/03/02 06:02:32;;;;;;;86.90;36.50;;;;;;;-2.02;91.63;102334.27;3580795;81;32686;-83
2021/03/02 06:07:33;;;;;;;86.70;39.15;;;;;;;-2.01;91.55;102329.18;3571884;81;98400;-83
2021/03/02 06:12:52;;;;;;;92.00;39.80;;;;;;;-2.00;91.67;102336.20;3557419;81;33154;-82
2021/03/02 06:18:21;;;;;;;96.13;40.03;;;;;;;-1.94;91.72;102341.13;3536878;81;98567;-83
2021/03/02 06:23:28;;;;;;;85.53;37.93;;;;;;;-1.94;91.62;102337.91;3549029;81;98853;-83
2021/03/02 06:28:43;;;;;;;85.23;37.50;;;;;;;-1.94;91.61;102344.66;3546657;81;33228;-83
2021/03/02 06:33:44;;;;;;;76.87;35.80;;;;;;;-1.95;91.84;102353.81;3536401;80;98744;-82
2021/03/02 06:38:45;;;;;;;73.67;33.73;;;;;;;-1.91;92.09;102360.33;3546244;81;32654;-83
2021/03/02 06:43:47;;;;;;;75.78;34.70;;;;;;;-1.82;92.33;102356.67;3535394;80;101591;-83
2021/03/02 06:48:53;;;;;;;95.37;41.23;;;;;;;-1.77;92.52;102358.92;3549381;81;32764;-83
2021/03/02 06:54:13;;;;;;;;;;;;;;;-1.68;93.12;102362.02;3543882;82;98497;-84
2021/03/02 06:59:19;;;;;;;90.30;43.27;;;;;;;-1.54;93.86;102359.25;3547470;81;25907;-82
2021/03/02 07:04:22;;;;;;;84.30;39.90;;;;;;;-1.42;94.62;102359.39;3556567;81;98859;-83
2021/03/02 07:09:24;;;;;;;75.77;34.13;;;;;;;-1.29;94.52;102367.14;3505275;82;32743;-83
2021/03/02 07:14:27;;;;;;;76.53;34.43;;;;;;;-1.10;95.70;102367.63;3553156;81;98597;-84
2021/03/02 07:19:28;;;;;;;74.90;36.07;;;;;;;-0.84;96.80;102358.71;3573023;81;32992;-84
2021/03/02 07:24:32;;;;;;;79.20;35.50;;;;;;;-0.57;97.10;102361.70;3580297;80;98868;-84
2021/03/02 07:29:34;;;;;;;102.73;43.23;;;;;;;-0.31;97.69;102356.25;3570590;82;32640;-84
2021/03/02 07:34:36;;;;;;;92.10;36.42;;;;;;;-0.02;98.13;102366.22;3559204;81;98699;-83
2021/03/02 07:39:37;;;;;;;85.87;37.43;;;;;;;0.24;98.63;102365.32;3569430;82;34094;-84
2021/03/02 07:45:06;;;;;;;81.47;32.83;;;;;;;0.45;98.65;102369.78;3578788;81;98775;-84
2021/03/02 07:50:32;;;;;;;74.70;32.80;;;;;;;0.72;98.86;102375.87;3563931;82;32631;-85
2021/03/02 07:55:33;;;;;;;69.33;30.90;;;;;;;0.94;98.91;102377.30;3579153;80;98636;-84
2021/03/02 08:00:34;;;;;;;72.30;33.97;;;;;;;1.17;99.38;102373.31;3558843;82;33364;-85
2021/03/02 08:05:36;;;;;;;65.20;28.77;;;;;;;1.44;99.65;102369.84;3558385;80;98715;-86
2021/03/02 08:10:37;;;;;;;71.17;31.10;;;;;;;1.73;99.57;102364.16;3554153;81;32713;-85
2021/03/02 08:15:39;;;;;;;62.90;29.37;;;;;;;1.94;99.54;102367.97;3615827;78;98394;-85
2021/03/02 08:21:29;;;;;;;60.30;29.37;;;;;;;2.14;99.20;102361.14;3616751;80;32604;-85
2021/03/02 08:26:33;;;;;;;64.93;31.30;;;;;;;2.37;99.19;102362.47;3622081;79;98437;-84
2021/03/02 08:31:36;;;;;;;66.60;28.13;;;;;;;2.62;98.98;102364.56;3596172;81;33839;-85
2021/03/02 08:36:38;;;;;;;63.60;29.02;;;;;;;2.87;99.00;102367.72;3589246;80;98485;-87
2021/03/02 08:41:46;;;;;;;59.17;29.67;;;;;;;3.17;99.13;102372.47;3591890;81;32627;-86
2021/03/02 08:46:55;;;;;;;58.57;28.43;;;;;;;3.50;98.57;102375.00;3591745;81;98455;-85
2021/03/02 08:52:04;;;;;;;61.50;29.67;;;;;;;3.82;98.70;102373.38;3592084;81;32978;-86
2021/03/02 08:57:05;;;;;;;60.40;28.77;;;;;;;4.12;98.32;102365.48;3588649;81;98858;-85
2021/03/02 09:02:06;;;;;;;54.83;27.23;;;;;;;4.48;98.10;102374.38;3596235;81;34192;-86
2021/03/02 09:07:07;;;;;;;49.07;26.43;;;;;;;4.94;97.35;102360.48;3590439;81;98684;-86
2021/03/02 09:12:10;;;;;;;56.87;27.07;;;;;;;5.47;96.72;102359.19;3593083;81;32834;-85
2021/03/02 09:17:11;;;;;;;46.30;25.87;;;;;;;5.97;95.87;102361.13;3586815;81;98695;-86
2021/03/02 09:22:15;;;;;;;48.27;26.17;;;;;;;6.55;96.12;102353.22;3594741;81;34084;-85
2021/03/02 09:27:19;;;;;;;46.10;25.50;;;;;;;7.21;94.66;102363.05;3583188;81;98448;-86
2021/03/02 09:32:27;;;;;;;47.67;27.07;;;;;;;7.77;92.50;102360.08;3594367;81;26836;-85
2021/03/02 09:37:35;;;;;;;47.57;24.00;;;;;;;8.52;91.84;102362.25;3586591;79;98295;-84
2021/03/02 09:42:39;;;;;;;39.90;22.83;;;;;;;8.99;89.62;102362.80;3596314;81;26403;-85
2021/03/02 09:47:42;;;;;;;39.93;23.40;;;;;;;9.48;87.75;102370.62;3589212;79;98761;-85
2021/03/02 09:52:55;;;;;;;38.23;20.97;;;;;;;9.84;88.45;102372.50;3590757;81;25950;-85
2021/03/02 09:58:12;;;;;;;39.18;18.92;;;;;;;10.56;87.65;102373.88;3586517;79;98437;-83
2021/03/02 10:03:19;;;;;;;35.80;20.50;;;;;;;10.96;84.70;102376.55;3577893;80;98983;-84
2021/03/02 10:08:39;;;;;;;35.93;20.90;;;;;;;11.32;84.57;102380.93;3591957;81;26218;-85
2021/03/02 10:13:58;;;;;;;33.50;19.12;;;;;;;12.10;83.05;102378.62;3580722;81;100909;-84
2021/03/02 10:19:04;;;;;;;37.37;21.70;;;;;;;12.50;81.59;102381.83;3579665;81;25926;-85
2021/03/02 10:24:06;;;;;;;36.33;22.15;;;;;;;12.90;80.56;102383.34;3582242;81;98685;-85
2021/03/02 10:29:07;;;;;;;34.80;21.17;;;;;;;12.94;76.84;102385.66;3585159;81;26177;-85
2021/03/02 10:34:18;;;;;;;32.87;19.37;;;;;;;12.89;76.78;102385.31;3594651;81;98865;-85
2021/03/02 10:39:16;;;;;;;32.80;20.17;;;;;;;13.16;76.79;102390.18;3594472;81;26461;-85
2021/03/02 10:44:17;;;;;;;35.92;21.30;;;;;;;13.29;74.12;102397.30;3589836;81;98635;-84
2021/03/02 10:49:18;;;;;;;35.33;21.07;;;;;;;13.44;74.86;102390.23;3600086;81;27278;-86
2021/03/02 10:54:19;;;;;;;35.03;21.33;;;;;;;13.68;73.98;102390.20;3584143;80;98875;-86
2021/03/02 10:59:20;;;;;;;34.07;21.03;;;;;;;13.51;69.72;102378.03;3595351;81;27401;-87
2021/03/02 11:04:21;;;;;;;36.67;22.13;;;;;;;13.36;72.08;102374.00;3584051;81;99333;-86
2021/03/02 11:09:25;;;;;;;37.00;22.90;;;;;;;13.56;70.95;102373.61;3588533;81;26908;-87
2021/03/02 11:14:25;;;;;;;38.03;22.20;;;;;;;13.56;69.37;102365.30;3555981;81;98996;-87
2021/03/02 11:19:26;;;;;;;33.37;20.23;;;;;;;13.41;69.97;102360.53;3555204;81;27846;-85
2021/03/02 11:24:27;;;;;;;36.40;21.13;;;;;;;13.40;69.69;102350.62;3529002;80;99104;-86
2021/03/02 11:29:28;;;;;;;32.90;20.63;;;;;;;13.38;69.67;102354.30;3526246;82;34136;-86
2021/03/02 11:34:32;;;;;;;36.50;20.23;;;;;;;13.35;69.75;102338.42;3543033;81;99079;-87
2021/03/02 11:39:34;;;;;;;31.47;19.80;;;;;;;13.25;68.06;102341.66;3560681;82;26607;-86
2021/03/02 11:44:35;;;;;;;35.25;18.62;;;;;;;13.05;68.66;102335.13;3551043;80;98859;-86
2021/03/02 11:49:36;;;;;;;32.33;19.40;;;;;;;12.90;67.72;102337.17;3522150;83;25622;-86
2021/03/02 11:54:37;;;;;;;30.05;16.62;;;;;;;12.82;68.07;102326.24;3550551;81;99159;-86
2021/03/02 11:59:37;;;;;;;30.73;16.40;;;;;;;12.74;68.12;102322.44;3548853;81;33282;-86
2021/03/02 12:04:38;;;;;;;33.97;20.03;;;;;;;12.68;68.43;102314.16;3532011;81;98497;-86
2021/03/02 12:09:40;;;;;;;34.77;19.17;;;;;;;12.68;68.15;102311.95;3550616;82;32738;-86
2021/03/02 12:14:40;;;;;;;32.47;20.03;;;;;;;12.73;67.93;102307.02;3555851;81;98674;-86
2021/03/02 12:19:42;;;;;;;34.33;20.17;;;;;;;12.69;67.53;102301.95;3615780;80;32801;-86
2021/03/02 12:24:43;;;;;;;32.05;17.23;;;;;;;12.69;67.40;102308.86;3540038;81;99030;-86
2021/03/02 12:29:44;;;;;;;27.40;16.25;;;;;;;12.62;67.42;102299.53;3580226;81;32732;-86
2021/03/02 12:34:46;;;;;;;33.20;17.92;;;;;;;12.59;66.64;102296.88;3579853;81;99055;-86
2021/03/02 12:39:47;;;;;;;28.20;16.13;;;;;;;12.55;66.17;102294.59;3567971;81;26557;-86
2021/03/02 12:44:48;;;;;;;28.63;16.03;;;;;;;12.44;66.30;102287.89;3586808;81;99299;-86
2021/03/02 12:49:49;;;;;;;28.37;16.30;;;;;;;12.38;66.50;102284.34;3587775;80;26019;-86
2021/03/02 12:54:50;;;;;;;27.20;15.05;;;;;;;12.37;66.06;102281.36;3583460;81;99072;-86
2021/03/02 12:59:51;;;;;;;26.50;13.43;;;;;;;12.28;66.54;102275.94;3593955;81;26389;-86
2021/03/02 13:04:54;;;;;;;25.57;13.90;;;;;;;12.25;65.93;102282.14;3587109;79;99033;-86
2021/03/02 13:09:57;;;;;;;24.77;12.70;;;;;;;12.17;65.29;102276.72;3594749;81;25923;-86
2021/03/02 13:15:01;;;;;;;29.50;13.43;;;;;;;12.08;65.69;102271.87;3588912;81;99026;-84
2021/03/02 13:20:03;;;;;;;24.87;13.50;;;;;;;12.08;65.37;102264.97;3595174;81;27637;-85
2021/03/02 13:25:07;;;;;;;22.17;12.27;;;;;;;12.07;65.72;102270.27;3589738;81;98926;-86
2021/03/02 13:30:11;;;;;;;24.73;13.20;;;;;;;12.04;65.65;102269.58;3593877;81;27536;-87
2021/03/02 13:35:13;;;;;;;27.55;13.80;;;;;;;11.96;65.43;102274.05;3585160;79;98713;-87
2021/03/02 13:40:18;;;;;;;24.33;14.30;;;;;;;11.92;64.14;102269.53;3592459;81;28784;-87
2021/03/02 13:45:21;;;;;;;29.77;16.30;;;;;;;11.84;64.55;102267.09;3584795;81;98915;-86
2021/03/02 13:50:24;;;;;;;21.87;13.33;;;;;;;11.77;65.15;102256.41;3596669;81;27596;-87
2021/03/02 13:55:25;;;;;;;24.50;14.23;;;;;;;11.79;65.33;102253.55;3591895;81;98745;-86
2021/03/02 14:00:26;;;;;;;27.37;14.57;;;;;;;11.81;64.76;102255.38;3593898;81;25959;-86
2021/03/02 14:05:30;;;;;;;25.27;13.80;;;;;;;11.67;64.34;102226.50;3588472;81;98810;-86
2021/03/02 14:10:31;;;;;;;27.10;14.40;;;;;;;11.77;65.48;102249.52;3583474;81;27655;-86
2021/03/02 14:15:33;;;;;;;30.35;16.23;;;;;;;11.74;64.96;102239.97;3553514;81;99035;-86
2021/03/02 14:20:34;;;;;;;28.83;15.17;;;;;;;11.74;65.29;102236.39;3550222;81;28721;-86
2021/03/02 14:25:36;;;;;;;24.07;13.03;;;;;;;11.70;65.16;102230.75;3545204;80;98691;-86
2021/03/02 14:30:37;;;;;;;28.17;15.13;;;;;;;11.68;65.28;102226.16;3550438;81;28255;-86
2021/03/02 14:35:38;;;;;;;27.60;13.97;;;;;;;11.65;65.16;102218.55;3546135;81;99375;-86
2021/03/02 14:40:39;;;;;;;24.93;12.63;;;;;;;11.65;64.48;102224.07;3535519;81;26277;-85
2021/03/02 14:45:44;;;;;;;26.93;13.23;;;;;;;11.62;64.63;102216.47;3549245;81;98910;-86
2021/03/02 14:50:46;;;;;;;28.43;13.57;;;;;;;11.58;64.50;102210.01;3551538;81;27535;-85
2021/03/02 14:56:01;;;;;;;26.93;14.70;;;;;;;11.54;64.76;102211.01;3553126;81;99540;-86
2021/03/02 15:01:06;;;;;;;28.20;14.77;;;;;;;11.50;65.28;102209.51;3547725;81;26008;-85
2021/03/02 15:06:07;;;;;;;28.62;13.72;;;;;;;11.43;65.28;102205.13;3538502;80;98878;-84
2021/03/02 15:11:08;;;;;;;26.53;13.87;;;;;;;11.34;65.27;102201.64;3545967;82;26922;-85
2021/03/02 15:16:09;;;;;;;24.47;13.83;;;;;;;11.30;65.61;102193.02;3548070;81;99049;-85
2021/03/02 15:21:10;;;;;;;27.03;14.30;;;;;;;11.26;65.04;102193.45;3550102;81;26417;-85
2021/03/02 15:26:15;;;;;;;26.97;13.03;;;;;;;11.22;65.24;102192.52;3554873;80;99105;-85
2021/03/02 15:31:17;;;;;;;25.33;14.27;;;;;;;11.15;65.59;102193.08;3553494;82;27476;-82
2021/03/02 15:36:22;;;;;;;24.30;14.30;;;;;;;11.07;65.78;102185.68;3524772;82;99007;-84
2021/03/02 15:41:23;;;;;;;26.90;12.70;;;;;;;10.95;66.25;102191.73;3555917;82;27526;-84
2021/03/02 15:46:27;;;;;;;26.87;13.17;;;;;;;10.81;66.58;102193.38;3531077;82;99153;-84
2021/03/02 15:51:28;;;;;;;28.00;13.77;;;;;;;10.69;66.97;102189.73;3534820;82;27516;-84
2021/03/02 15:56:36;;;;;;;28.67;13.57;;;;;;;10.60;67.21;102188.42;3536117;82;99275;-84
2021/03/02 16:02:12;;;;;;;25.97;13.80;;;;;;;10.48;67.51;102185.56;3528062;82;27420;-84
2021/03/02 16:07:19;;;;;;;43.70;23.87;;;;;;;10.35;68.04;102185.26;3525104;82;98525;-84
2021/03/02 16:12:27;;;;;;;53.77;29.60;;;;;;;10.20;68.41;102182.28;3549098;82;27641;-85
2021/03/02 16:17:32;;;;;;;42.83;24.83;;;;;;;10.04;68.69;102186.73;3529666;82;98882;-85
2021/03/02 16:22:50;;;;;;;32.00;16.93;;;;;;;9.89;69.10;102190.81;3504883;82;28469;-84
2021/03/02 16:27:57;;;;;;;48.87;27.10;;;;;;;9.76;69.44;102194.56;3523509;82;98651;-84
2021/03/02 16:32:59;;;;;;;33.03;18.57;;;;;;;9.60;69.75;102187.98;3533148;82;27621;-84
2021/03/02 16:38:01;;;;;;;31.43;16.57;;;;;;;9.48;70.25;102182.94;3526208;82;98590;-83
2021/03/02 16:43:02;;;;;;;39.37;22.33;;;;;;;9.30;70.57;102188.20;3534337;82;26498;-83
2021/03/02 16:48:04;;;;;;;40.20;21.73;;;;;;;9.13;71.12;102182.19;3528004;81;98390;-83
2021/03/02 16:53:13;;;;;;;39.83;22.23;;;;;;;9.00;71.35;102175.49;3531365;82;28298;-83
2021/03/02 16:58:49;;;;;;;41.27;21.17;;;;;;;8.78;71.63;102188.02;3512485;82;27538;-83
2021/03/02 17:03:53;;;;;;;38.00;20.80;;;;;;;8.53;72.10;102188.23;3550296;81;98699;-83
2021/03/02 17:09:03;;;;;;;35.50;18.93;;;;;;;8.41;72.71;102195.46;3552049;82;27507;-83
2021/03/02 17:14:05;;;;;;;44.38;20.82;;;;;;;8.18;72.85;102192.55;3508569;80;99044;-83
2021/03/02 17:19:06;;;;;;;34.50;18.10;;;;;;;8.06;73.33;102195.89;3535268;82;28379;-83
2021/03/02 17:24:08;;;;;;;35.20;17.30;;;;;;;7.81;73.45;102192.47;3523966;83;98340;-83
2021/03/02 17:29:10;;;;;;;32.97;16.40;;;;;;;7.57;74.14;102203.55;3535985;83;28260;-84
2021/03/02 17:34:11;;;;;;;41.08;18.55;;;;;;;7.37;74.24;102195.29;3552034;82;98818;-81
2021/03/02 17:39:12;;;;;;;32.80;16.70;;;;;;;7.25;75.00;102199.74;3531289;82;26130;-83
2021/03/02 17:44:13;;;;;;;36.93;16.87;;;;;;;7.13;75.64;102204.40;3523385;82;98639;-83
2021/03/02 17:49:14;;;;;;;37.07;18.37;;;;;;;6.99;75.14;102203.63;3528909;82;26601;-83
2021/03/02 17:54:15;;;;;;;35.63;16.27;;;;;;;6.71;75.64;102200.73;3545244;79;98522;-81
2021/03/02 17:59:16;;;;;;;35.23;17.23;;;;;;;6.59;75.74;102203.75;3532816;82;26310;-82
2021/03/02 18:04:17;;;;;;;33.47;17.77;;;;;;;6.36;76.15;102202.89;3531416;81;98754;-82
2021/03/02 18:09:18;;;;;;;30.43;15.73;;;;;;;6.29;76.50;102199.77;3539248;82;26364;-82
2021/03/02 18:14:19;;;;;;;39.53;19.00;;;;;;;6.14;76.53;102203.36;3539680;81;98531;-81
2021/03/02 18:19:21;;;;;;;40.30;22.70;;;;;;;6.03;76.74;102201.94;3582101;81;26453;-82
2021/03/02 18:24:22;;;;;;;41.83;20.77;;;;;;;5.76;76.54;102205.44;3531219;81;98379;-82
2021/03/02 18:29:25;;;;;;;39.73;18.33;;;;;;;5.33;77.27;102209.49;3612687;80;26282;-82
2021/03/02 18:34:26;;;;;;;46.27;21.80;;;;;;;5.22;78.04;102215.41;3600995;79;98510;-82
2021/03/02 18:39:27;;;;;;;44.60;22.53;;;;;;;5.20;78.40;102210.27;3608198;81;25934;-83
2021/03/02 18:44:28;;;;;;;51.60;27.17;;;;;;;5.12;78.42;102207.41;3598834;80;98794;-83
2021/03/02 18:49:29;;;;;;;54.77;28.93;;;;;;;5.06;78.78;102212.66;3603762;81;26493;-83
2021/03/02 18:54:30;;;;;;;56.20;29.13;;;;;;;5.00;78.99;102214.67;3598251;80;98367;-83
2021/03/02 18:59:31;;;;;;;51.80;28.33;;;;;;;4.95;79.38;102211.20;3607811;80;26550;-83
2021/03/02 19:04:32;;;;;;;54.47;28.00;;;;;;;4.82;79.15;102214.14;3606623;79;98480;-83
2021/03/02 19:09:36;;;;;;;56.05;28.85;;;;;;;4.67;79.03;102215.72;3614818;80;26185;-82
2021/03/02 19:14:37;;;;;;;58.63;29.57;;;;;;;4.52;79.11;102211.83;3606006;80;98343;-83
2021/03/02 19:19:38;;;;;;;56.93;27.13;;;;;;;4.43;79.53;102216.87;3619804;80;34151;-82
2021/03/02 19:24:39;;;;;;;55.70;30.07;;;;;;;4.15;79.69;102207.67;3559406;81;98805;-82
2021/03/02 19:29:40;;;;;;;56.87;29.87;;;;;;;4.15;79.69;102207.67;3602702;81;33307;-83
2021/03/02 19:34:41;;;;;;;58.50;28.90;;;;;;;3.94;79.80;102213.66;3616790;79;98330;-84
2021/03/02 19:39:42;;;;;;;57.67;29.57;;;;;;;3.83;80.26;102221.11;3594755;80;33380;-84
2021/03/02 19:44:44;;;;;;;55.33;28.33;;;;;;;3.78;80.54;102224.45;3622146;80;98686;-84
2021/03/02 19:49:45;;;;;;;57.23;26.47;;;;;;;3.57;80.40;102220.30;3558583;82;33316;-85
2021/03/02 19:54:46;;;;;;;62.10;27.93;;;;;;;3.42;80.79;102221.27;3594832;80;98722;-84
2021/03/02 19:59:47;;;;;;;52.03;25.47;;;;;;;3.23;81.18;102213.52;3577441;81;34452;-84
2021/03/02 20:04:48;;;;;;;53.85;26.85;;;;;;;3.20;81.30;102210.56;3566167;80;98995;-84
2021/03/02 20:09:50;;;;;;;53.77;25.13;;;;;;;3.08;81.51;102206.05;3625836;80;33382;-84
2021/03/02 20:14:51;;;;;;;55.10;25.77;;;;;;;3.02;81.66;102209.90;3544694;80;98461;-83
2021/03/02 20:19:52;;;;;;;53.67;26.23;;;;;;;2.83;81.68;102213.02;3580043;81;33340;-83
2021/03/02 20:24:53;;;;;;;51.87;26.27;;;;;;;2.78;82.04;102212.51;3571638;81;98726;-83
2021/03/02 20:29:54;;;;;;;57.03;27.97;;;;;;;2.62;81.99;102205.55;3579762;80;31458;-83
2021/03/02 20:34:55;;;;;;;46.13;26.27;;;;;;;2.54;82.15;102210.75;3567367;81;98391;-83
2021/03/02 20:39:56;;;;;;;45.90;24.80;;;;;;;2.51;82.49;102209.98;3620660;80;29147;-83
2021/03/02 20:44:57;;;;;;;47.60;24.90;;;;;;;2.46;82.44;102212.16;3571549;80;98324;-82
2021/03/02 20:49:58;;;;;;;48.13;25.03;;;;;;;2.37;82.58;102212.49;3586061;81;32339;-83
2021/03/02 20:54:59;;;;;;;40.93;20.07;;;;;;;2.31;82.90;102205.45;3620755;80;98331;-84
2021/03/02 21:00:00;;;;;;;40.67;20.73;;;;;;;2.26;83.01;102204.13;3613111;80;32171;-84
2021/03/02 21:05:03;;;;;;;39.73;22.23;;;;;;;2.21;83.21;102215.01;3620791;80;98609;-83
2021/03/02 21:10:08;;;;;;;42.13;23.17;;;;;;;2.17;83.26;102215.81;3618183;80;31783;-83
2021/03/02 21:15:11;;;;;;;36.33;18.93;;;;;;;2.08;82.97;102217.50;3595969;80;98568;-83
2021/03/02 21:20:13;;;;;;;42.03;21.13;;;;;;;1.96;83.21;102209.66;3564891;81;31850;-83
2021/03/02 21:25:15;;;;;;;38.03;17.27;;;;;;;1.97;83.69;102211.84;3609772;80;98657;-82
2021/03/02 21:30:18;;;;;;;34.70;18.13;;;;;;;1.97;83.96;102211.84;3596383;81;32323;-86
2021/03/02 21:35:19;;;;;;;36.67;18.00;;;;;;;1.85;83.88;102217.56;3582769;81;98676;-86
2021/03/02 21:40:20;;;;;;;34.13;18.43;;;;;;;1.79;84.11;102217.31;3594659;81;31750;-86
2021/03/02 21:45:21;;;;;;;45.30;20.97;;;;;;;1.69;84.21;102213.82;3588411;81;98318;-85
2021/03/02 21:50:22;;;;;;;36.97;18.30;;;;;;;1.52;84.34;102210.56;3590055;80;31814;-86
2021/03/02 21:55:23;;;;;;;43.20;20.47;;;;;;;1.38;84.45;102202.17;3583287;81;99053;-88
2021/03/02 22:00:25;;;;;;;41.27;20.67;;;;;;;1.34;84.52;102195.69;3591365;81;31707;-87
2021/03/02 22:05:26;;;;;;;39.73;18.63;;;;;;;1.31;84.73;102195.42;3590061;81;98582;-85
2021/03/02 22:10:27;;;;;;;39.93;18.57;;;;;;;1.27;84.61;102197.05;3585124;81;31693;-84
2021/03/02 22:15:28;;;;;;;41.60;20.20;;;;;;;1.15;84.49;102189.17;3577525;81;98455;-82
2021/03/02 22:20:29;;;;;;;47.73;23.23;;;;;;;1.07;84.85;102199.75;3561057;81;29948;-82
2021/03/02 22:25:31;;;;;;;47.60;22.23;;;;;;;1.09;84.98;102192.19;3543196;81;98373;-82
2021/03/02 22:30:32;;;;;;;48.10;23.53;;;;;;;1.08;85.08;102193.24;3551751;82;30744;-83
2021/03/02 22:35:32;;;;;;;47.70;23.67;;;;;;;1.02;85.17;102194.33;3543555;82;99178;-82
2021/03/02 22:40:34;;;;;;;46.47;22.13;;;;;;;1.02;85.37;102194.33;3550663;82;28438;-82
2021/03/02 22:45:35;;;;;;;49.43;22.47;;;;;;;0.97;85.19;102191.61;3546266;80;98754;-83
2021/03/02 22:50:36;;;;;;;55.27;22.93;;;;;;;0.84;85.00;102187.56;3554512;81;27921;-83
2021/03/02 22:55:37;;;;;;;50.83;24.10;;;;;;;0.70;85.17;102181.03;3548057;81;98850;-82
2021/03/02 23:00:38;;;;;;;58.53;26.63;;;;;;;0.67;85.34;102183.47;3552235;82;35064;-82
2021/03/02 23:05:39;;;;;;;84.40;35.57;;;;;;;0.57;85.25;102184.80;3542279;80;98353;-82